Terminal Aerodrome Forecast
Issued by NWS

Home | Current Version | Previous Version | Text Only | Print | Product List | Glossary On
Versions: 1 2 3 4 5 6 7 8 9 10 11 12 13 14 15 16
805
FTUS44 KBMX 210520
TAFEET
TAF
KEET 210520Z 2106/2206 00000KT P6SM SCT200
     FM210800 00000KT 4SM BR SKC
     FM211300 VRB03KT P6SM SCT050
      TEMPO 2120/2123 TSRA BKN050CB=

USA.gov is the U.S. government's official web portal to all federal, state and local government web resources and services.